Time;durP1;ratioP1;P1;durP2;ratioP2;P2;SDS_P1;SDS_P2;PMS_P1;PMS_P2;Temp;Humidity;BMP_temperature;BMP_pressure;BME280_temperature;BME280_humidity;BME280_pressure;Samples;Min_cycle;Max_cycle;Signal;HPM_P1;HPM_P2
2022/09/03 00:00:10;;;;;;;;;;;;;;;20.70;34.56;100021.47;4937187;28;7440;-74
2022/09/03 00:03:03;;;;;;;;;;;;;;;20.68;34.15;100024.06;4921170;28;11153;-73
2022/09/03 00:06:16;;;;;;;;;;;;;;;20.65;34.09;100022.31;4970591;28;7082;-74
2022/09/03 00:09:25;;;;;;;;;;;;;;;20.64;34.37;100020.59;4970614;28;8686;-74
2022/09/03 00:12:14;;;;;;;;;;;;;;;20.63;34.85;100018.84;4974248;28;7501;-73
2022/09/03 00:14:57;;;;;;;;;;;;;;;20.60;34.46;100021.47;4972677;28;6800;-73
2022/09/03 00:17:34;;;;;;;;;;;;;;;20.59;34.45;100018.84;4972311;28;8128;-74
2022/09/03 00:20:16;;;;;;;;;;;;;;;20.57;34.45;100018.88;4979325;28;7244;-74
2022/09/03 00:22:50;;;;;;;;;;;;;;;20.57;34.71;100021.47;4958615;28;6816;-74
2022/09/03 00:25:32;;;;;;;;;;;;;;;20.54;34.47;100017.13;4955794;28;6804;-74
2022/09/03 00:28:11;;;;;;;;;;;;;;;20.52;34.40;100007.56;4976539;28;7422;-73
2022/09/03 00:30:40;;;;;;;;;;;;;;;20.51;34.38;100011.03;4970643;28;6816;-73
2022/09/03 00:33:24;;;;;;;;;;;;;;;20.48;34.76;100006.69;4972142;28;6800;-73
2022/09/03 00:36:14;;;;;;;;;;;;;;;20.46;34.96;100002.34;4962959;28;6800;-74
2022/09/03 00:38:40;;;;;;;;;;;;;;;20.45;34.91;100013.63;4975403;28;6804;-74
2022/09/03 00:41:53;;;;;;;;;;;;;;;20.43;34.84;100016.25;4973515;28;8483;-75
2022/09/03 00:44:28;;;;;;;;;;;;;;;20.41;34.97;100015.34;4899353;29;6880;-74
2022/09/03 00:47:12;;;;;;;;;;;;;;;20.38;34.74;100013.63;4955838;28;7032;-74
2022/09/03 00:50:15;;;;;;;;;;;;;;;20.37;34.81;100017.06;4974487;28;6946;-74
2022/09/03 00:52:56;;;;;;;;;;;;;;;20.33;34.96;100012.75;4977517;28;8411;-74
2022/09/03 00:55:43;;;;;;;;;;;;;;;20.32;34.70;100010.13;4975398;28;6812;-74
2022/09/03 00:58:32;;;;;;;;;;;;;;;20.29;35.01;100012.75;4972248;28;7814;-74
2022/09/03 01:01:06;;;;;;;;;;;;;;;20.24;35.18;100011.00;4962128;28;8353;-73
2022/09/03 01:04:20;;;;;;;;;;;;;;;20.23;35.32;100013.59;4973249;28;7204;-73
2022/09/03 01:07:05;;;;;;;;;;;;;;;20.18;34.78;100007.50;4974698;28;9618;-74
2022/09/03 01:09:57;;;;;;;;;;;;;;;20.16;35.27;100009.25;4975830;28;6824;-74
2022/09/03 01:12:57;;;;;;;;;;;;;;;20.14;35.57;100006.66;4978579;28;7058;-74
2022/09/03 01:15:48;;;;;;;;;;;;;;;20.10;34.89;100008.38;4971469;28;7230;-74
2022/09/03 01:18:43;;;;;;;;;;;;;;;20.07;35.67;100008.34;4977471;28;7305;-74
2022/09/03 01:21:30;;;;;;;;;;;;;;;20.05;35.61;100010.09;4977189;28;6820;-74
2022/09/03 01:24:48;;;;;;;;;;;;;;;20.02;35.14;100011.81;4975354;28;6951;-74
2022/09/03 01:28:01;;;;;;;;;;;;;;;20.00;35.36;100006.63;4959382;28;6804;-74
2022/09/03 01:30:37;;;;;;;;;;;;;;;19.98;35.63;100008.31;4977395;28;6915;-73
2022/09/03 01:33:14;;;;;;;;;;;;;;;19.99;35.55;100002.28;4969483;28;7007;-74
2022/09/03 01:36:14;;;;;;;;;;;;;;;20.01;35.51;100003.16;4972822;28;7093;-74
2022/09/03 01:38:49;;;;;;;;;;;;;;;20.00;35.28;100006.63;4973460;28;7217;-74
2022/09/03 01:42:15;;;;;;;;;;;;;;;20.00;35.53;100009.22;4971262;28;6832;-74
2022/09/03 01:45:29;;;;;;;;;;;;;;;19.97;35.99;100004.00;4959633;28;7057;-74
2022/09/03 01:48:17;;;;;;;;;;;;;;;19.95;36.13;100013.53;4959763;28;6998;-73
2022/09/03 01:51:18;;;;;;;;;;;;;;;19.96;35.66;100004.84;4985448;28;7009;-73
2022/09/03 01:54:02;;;;;;;;;;;;;;;19.96;35.38;100003.13;4985505;28;6816;-74
2022/09/03 01:57:02;;;;;;;;;;;;;;;19.95;35.34;100003.13;4982215;28;7118;-74
2022/09/03 02:00:12;;;;;;;;;;;;;;;19.96;35.88;100002.25;4983554;28;6824;-74
2022/09/03 02:02:47;;;;;;;;;;;;;;;19.96;35.58;100004.84;4980335;28;11254;-74
2022/09/03 02:05:25;;;;;;;;;;;;;;;19.96;36.05;100008.34;4964712;28;6844;-74
2022/09/03 02:08:07;;;;;;;;;;;;;;;19.98;35.81;100010.94;4979279;28;6799;-74
2022/09/03 02:10:58;;;;;;;;;;;;;;;19.97;35.61;100001.38;4967058;28;7002;-74
2022/09/03 02:13:31;;;;;;;;;;;;;;;20.00;35.79;100001.41;4972478;28;7086;-74
2022/09/03 02:16:06;;;;;;;;;;;;;;;20.01;35.87;99999.66;4990982;28;6827;-74
2022/09/03 02:18:40;;;;;;;;;;;;;;;20.03;35.87;100006.63;4983177;28;7259;-74
2022/09/03 02:21:06;;;;;;;;;;;;;;;20.06;35.75;100006.63;4986200;28;6808;-74
2022/09/03 02:23:32;;;;;;;;;;;;;;;20.09;35.63;100003.16;4986395;28;7163;-74
2022/09/03 02:26:02;;;;;;;;;;;;;;;20.10;36.04;100003.19;4963069;28;6945;-74
2022/09/03 02:28:31;;;;;;;;;;;;;;;20.10;35.64;100002.28;4984800;28;6799;-74
2022/09/03 02:30:57;;;;;;;;;;;;;;;20.11;35.82;100004.03;4984490;28;7118;-74
2022/09/03 02:33:23;;;;;;;;;;;;;;;20.09;35.78;99998.84;4989185;28;6776;-74
2022/09/03 02:35:49;;;;;;;;;;;;;;;20.09;35.92;99996.25;4983776;28;7278;-75
2022/09/03 02:38:24;;;;;;;;;;;;;;;20.07;35.63;100000.53;4987500;28;7184;-74
2022/09/03 02:40:50;;;;;;;;;;;;;;;20.06;36.08;99997.97;4965813;28;7216;-74
2022/09/03 02:43:53;;;;;;;;;;;;;;;20.04;36.39;99997.06;4984313;28;6946;-74
2022/09/03 02:46:30;;;;;;;;;;;;;;;19.97;36.16;99998.78;4983526;28;7221;-75
2022/09/03 02:48:56;;;;;;;;;;;;;;;19.93;36.59;99995.31;4977328;28;7323;-74
2022/09/03 02:51:22;;;;;;;;;;;;;;;19.92;36.15;99992.69;4972704;28;6818;-74
2022/09/03 02:53:48;;;;;;;;;;;;;;;19.89;36.47;99997.84;4979061;28;6957;-75
2022/09/03 02:56:13;;;;;;;;;;;;;;;19.85;36.34;99995.25;4973340;28;6784;-76
2022/09/03 02:58:39;;;;;;;;;;;;;;;19.84;36.31;99990.03;4973052;28;7868;-76
2022/09/03 03:01:05;;;;;;;;;;;;;;;19.82;36.30;99990.06;4959895;28;7112;-76
2022/09/03 03:03:31;;;;;;;;;;;;;;;19.82;36.80;99989.19;4960522;28;6976;-76
2022/09/03 03:06:01;;;;;;;;;;;;;;;19.82;36.12;99995.25;4979782;28;6829;-76
2022/09/03 03:08:29;;;;;;;;;;;;;;;19.87;36.55;99991.78;4977451;28;6791;-76
2022/09/03 03:10:58;;;;;;;;;;;;;;;19.89;36.45;99990.06;4987840;28;6872;-76
2022/09/03 03:13:27;;;;;;;;;;;;;;;19.91;36.43;99991.81;4986128;28;6823;-76
2022/09/03 03:15:59;;;;;;;;;;;;;;;19.94;36.23;99985.78;4964589;28;7569;-77
2022/09/03 03:18:25;;;;;;;;;;;;;;;19.96;36.34;99984.06;4961264;28;7400;-76
2022/09/03 03:20:50;;;;;;;;;;;;;;;19.97;36.86;99984.06;4981632;28;6988;-76
2022/09/03 03:23:16;;;;;;;;;;;;;;;20.00;36.38;99984.94;4976559;28;6783;-76
2022/09/03 03:25:42;;;;;;;;;;;;;;;20.01;36.53;99987.53;4983080;28;7848;-76
2022/09/03 03:28:08;;;;;;;;;;;;;;;20.01;36.60;99982.34;4977088;28;7350;-76
2022/09/03 03:30:38;;;;;;;;;;;;;;;20.02;36.78;99978.88;4973130;28;6780;-75
2022/09/03 03:33:06;;;;;;;;;;;;;;;20.04;36.74;99981.47;4948954;28;6874;-77
2022/09/03 03:35:32;;;;;;;;;;;;;;;20.04;36.68;99982.34;4976698;28;6787;-76
2022/09/03 03:37:58;;;;;;;;;;;;;;;20.04;36.57;99981.47;4985221;28;6927;-76
2022/09/03 03:40:24;;;;;;;;;;;;;;;20.05;36.86;99991.03;4966337;28;6966;-77
2022/09/03 03:42:50;;;;;;;;;;;;;;;20.06;36.84;99982.34;4981517;28;7320;-76
2022/09/03 03:45:17;;;;;;;;;;;;;;;20.07;36.53;99986.69;4961150;28;6960;-77
2022/09/03 03:47:42;;;;;;;;;;;;;;;20.10;36.80;99992.78;4982501;28;7285;-76
2022/09/03 03:50:08;;;;;;;;;;;;;;;20.13;36.79;99984.09;4962366;28;6957;-76
2022/09/03 03:52:34;;;;;;;;;;;;;;;20.15;36.95;99984.97;4978657;28;7223;-76
2022/09/03 03:54:59;;;;;;;;;;;;;;;20.19;37.27;99986.72;4972791;28;7104;-76
2022/09/03 03:57:29;;;;;;;;;;;;;;;20.22;36.59;99984.09;4978937;28;6950;-76
2022/09/03 03:59:54;;;;;;;;;;;;;;;20.27;36.72;99986.72;4959957;28;7068;-76
2022/09/03 04:02:20;;;;;;;;;;;;;;;20.29;36.54;99982.41;4976373;28;7439;-76
2022/09/03 04:04:46;;;;;;;;;;;;;;;20.32;36.83;99982.41;4978716;28;7216;-76
2022/09/03 04:07:11;;;;;;;;;;;;;;;20.36;37.10;99981.50;4973463;28;7979;-76
2022/09/03 04:09:37;;;;;;;;;;;;;;;20.42;36.55;99982.41;4985723;28;6855;-76
2022/09/03 04:12:07;;;;;;;;;;;;;;;20.46;36.71;99978.91;4987847;28;7030;-76
2022/09/03 04:14:37;;;;;;;;;;;;;;;20.50;36.54;99984.13;4962686;28;7197;-75
2022/09/03 04:17:03;;;;;;;;;;;;;;;20.56;36.49;99992.81;4980456;28;6804;-75
2022/09/03 04:19:29;;;;;;;;;;;;;;;20.59;36.72;99980.69;4989268;28;6792;-77
2022/09/03 04:21:55;;;;;;;;;;;;;;;20.62;36.54;99978.06;4981836;28;6989;-73
2022/09/03 04:24:21;;;;;;;;;;;;;;;20.68;36.45;99985.88;4984728;28;7340;-76
2022/09/03 04:26:49;;;;;;;;;;;;;;;20.72;36.44;99983.28;4982116;28;6791;-75
2022/09/03 04:29:15;;;;;;;;;;;;;;;20.74;36.16;99984.13;4986486;28;7306;-75
2022/09/03 04:32:51;;;;;;;;;;;;;;;20.77;36.17;99978.94;4986632;28;6999;-75
2022/09/03 04:34:26;;;;;;;;;;;;;;;20.78;35.97;99983.28;4983393;28;7082;-75
2022/09/03 04:36:52;;;;;;;;;;;;;;;20.80;36.12;99982.38;4983571;28;6794;-75
2022/09/03 04:39:17;;;;;;;;;;;;;;;20.84;36.32;99993.69;4947567;28;7773;-75
2022/09/03 04:41:43;;;;;;;;;;;;;;;20.86;36.08;99978.09;4989554;28;6843;-75
2022/09/03 04:44:09;;;;;;;;;;;;;;;20.87;35.85;99985.91;4977156;28;6901;-75
2022/09/03 04:46:34;;;;;;;;;;;;;;;20.88;35.99;99973.72;4982119;28;6788;-76
2022/09/03 04:49:01;;;;;;;;;;;;;;;20.91;36.13;99974.59;4979232;28;7242;-76
2022/09/03 04:51:31;;;;;;;;;;;;;;;20.92;36.12;99975.47;4985668;28;7238;-76
2022/09/03 04:54:00;;;;;;;;;;;;;;;20.94;36.23;99977.19;4979327;28;6800;-76
2022/09/03 04:56:30;;;;;;;;;;;;;;;20.94;35.83;99982.41;4959973;28;7050;-76
2022/09/03 04:59:06;;;;;;;;;;;;;;;20.95;35.91;99981.53;4989446;28;6946;-76
2022/09/03 05:01:34;;;;;;;;;;;;;;;20.97;35.93;99985.91;4989213;28;7873;-76
2022/09/03 05:04:00;;;;;;;;;;;;;;;20.95;36.04;99988.50;4985601;28;6871;-76
2022/09/03 05:06:28;;;;;;;;;;;;;;;20.93;35.97;99983.28;4988211;28;7095;-77
2022/09/03 05:08:55;;;;;;;;;;;;;;;20.93;36.15;99982.44;4985925;28;6807;-76
2022/09/03 05:11:23;;;;;;;;;;;;;;;20.90;36.18;99985.91;4983987;28;6970;-76
2022/09/03 05:13:51;;;;;;;;;;;;;;;20.87;36.17;99985.91;4985945;28;7593;-76
2022/09/03 05:16:18;;;;;;;;;;;;;;;20.85;36.14;99991.97;4985717;28;6792;-76
2022/09/03 05:18:45;;;;;;;;;;;;;;;20.83;36.46;99993.72;4991479;28;7002;-76
2022/09/03 05:21:15;;;;;;;;;;;;;;;20.79;36.08;99995.44;4986705;28;7008;-76
2022/09/03 05:23:44;;;;;;;;;;;;;;;20.78;36.28;99998.91;4989034;28;6792;-76
2022/09/03 05:26:15;;;;;;;;;;;;;;;20.74;36.19;99994.53;4990998;28;7107;-76
2022/09/03 05:28:42;;;;;;;;;;;;;;;20.72;36.35;99996.28;4990197;28;6828;-76
2022/09/03 05:31:13;;;;;;;;;;;;;;;20.70;36.14;99998.03;4966588;28;6972;-76
2022/09/03 05:33:48;;;;;;;;;;;;;;;20.66;36.34;99999.75;4990222;28;7144;-76
2022/09/03 05:36:21;;;;;;;;;;;;;;;20.64;36.72;99994.53;4957324;28;7247;-76
2022/09/03 05:38:48;;;;;;;;;;;;;;;20.63;36.49;100000.63;4991108;28;7153;-76
2022/09/03 05:41:15;;;;;;;;;;;;;;;20.62;36.36;99996.28;4968085;28;7250;-76
2022/09/03 05:43:41;;;;;;;;;;;;;;;20.65;36.71;100000.63;4989441;28;6845;-76
2022/09/03 05:46:17;;;;;;;;;;;;;;;20.65;36.48;100001.50;4968296;28;7140;-76
2022/09/03 05:48:43;;;;;;;;;;;;;;;20.68;36.78;100000.63;4989929;28;7044;-76
2022/09/03 05:51:15;;;;;;;;;;;;;;;20.71;36.99;100007.56;4991631;28;6792;-76
2022/09/03 05:53:44;;;;;;;;;;;;;;;20.75;37.08;100006.69;4991285;28;7334;-76
2022/09/03 05:56:17;;;;;;;;;;;;;;;20.78;37.18;100001.50;4993466;28;6864;-76
2022/09/03 05:58:45;;;;;;;;;;;;;;;20.82;36.69;100016.28;4992509;28;6880;-76
2022/09/03 06:01:13;;;;;;;;;;;;;;;20.86;37.02;100007.63;4994251;28;6810;-77
2022/09/03 06:03:40;;;;;;;;;;;;;;;20.90;37.11;100011.06;4993120;28;7264;-76
2022/09/03 06:06:06;;;;;;;;;;;;;;;20.93;37.15;100008.47;4994913;28;7726;-75
2022/09/03 06:08:33;;;;;;;;;;;;;;;20.98;37.32;100006.72;4975288;28;6955;-75
2022/09/03 06:11:02;;;;;;;;;;;;;;;21.01;37.20;100001.53;4992038;28;7047;-76
2022/09/03 06:13:29;;;;;;;;;;;;;;;21.07;37.12;100003.25;4991253;28;6864;-77
2022/09/03 06:15:56;;;;;;;;;;;;;;;21.12;37.37;100008.44;4990172;28;6977;-76
2022/09/03 06:18:24;;;;;;;;;;;;;;;21.19;37.23;100012.75;4991755;28;6891;-76
2022/09/03 06:20:58;;;;;;;;;;;;;;;21.27;36.99;100005.78;4991546;28;6989;-76
2022/09/03 06:23:28;;;;;;;;;;;;;;;21.35;37.30;100011.00;4989949;28;6831;-76
2022/09/03 06:26:06;;;;;;;;;;;;;;;21.46;37.11;100011.84;4990682;28;6990;-76
2022/09/03 06:28:44;;;;;;;;;;;;;;;21.59;37.00;100003.97;4993054;28;6796;-76
2022/09/03 06:31:14;;;;;;;;;;;;;;;21.73;36.69;100004.81;4973585;28;7481;-76
2022/09/03 06:33:41;;;;;;;;;;;;;;;21.89;36.67;100004.72;4996253;28;7000;-76
2022/09/03 06:36:09;;;;;;;;;;;;;;;22.03;36.79;100008.16;4994192;28;6793;-77
2022/09/03 06:38:37;;;;;;;;;;;;;;;22.17;36.21;100009.78;4995835;28;7253;-76
2022/09/03 06:41:23;;;;;;;;;;;;;;;22.31;36.35;100007.97;4992678;28;6792;-76
2022/09/03 06:43:53;;;;;;;;;;;;;;;22.45;36.53;100007.88;4975091;28;7075;-76
2022/09/03 06:46:22;;;;;;;;;;;;;;;22.58;35.83;100011.28;4973931;28;7060;-76
2022/09/03 06:48:49;;;;;;;;;;;;;;;22.70;36.12;100007.69;4987700;28;7189;-76
2022/09/03 06:51:22;;;;;;;;;;;;;;;22.85;35.81;100008.47;4988871;28;7003;-76
2022/09/03 06:53:53;;;;;;;;;;;;;;;22.99;35.98;100010.94;4985908;28;6804;-76
2022/09/03 06:56:25;;;;;;;;;;;;;;;23.11;36.07;100015.16;4985938;28;7019;-77
2022/09/03 06:58:54;;;;;;;;;;;;;;;23.25;35.66;100012.41;4976595;28;7452;-76
2022/09/03 07:01:27;;;;;;;;;;;;;;;23.35;35.21;100013.22;4991400;28;6935;-76
2022/09/03 07:03:59;;;;;;;;;;;;;;;23.44;35.87;100013.97;4988779;28;6995;-76
2022/09/03 07:06:28;;;;;;;;;;;;;;;23.57;35.36;100013.84;4990896;28;7055;-76
2022/09/03 07:08:56;;;;;;;;;;;;;;;23.69;34.93;100012.81;4989995;28;6811;-76
2022/09/03 07:11:26;;;;;;;;;;;;;;;23.81;35.14;100019.63;4994722;28;6823;-76
2022/09/03 07:13:54;;;;;;;;;;;;;;;23.95;35.19;100011.59;4992750;28;6808;-76
2022/09/03 07:16:23;;;;;;;;;;;;;;;24.14;35.57;100025.31;4992917;28;7052;-76
2022/09/03 07:18:51;;;;;;;;;;;;;;;24.35;34.96;100012.84;4991728;28;6872;-76
2022/09/03 07:21:24;;;;;;;;;;;;;;;24.60;34.61;100012.44;4991005;28;6816;-76
2022/09/03 07:23:52;;;;;;;;;;;;;;;24.81;34.62;100019.94;4990617;28;6812;-76
2022/09/03 07:26:30;;;;;;;;;;;;;;;24.97;34.38;100019.69;4990705;28;6804;-77
2022/09/03 07:28:57;;;;;;;;;;;;;;;25.08;33.90;100012.50;4992168;28;7641;-77
2022/09/03 07:31:28;;;;;;;;;;;;;;;25.18;33.50;100021.06;4989567;28;6978;-76
2022/09/03 07:34:00;;;;;;;;;;;;;;;25.26;33.85;100017.44;4989616;28;6796;-76
2022/09/03 07:36:28;;;;;;;;;;;;;;;25.34;33.43;100013.75;4974483;28;6867;-76
2022/09/03 07:38:57;;;;;;;;;;;;;;;25.39;33.35;100011.06;4985037;28;8271;-76
2022/09/03 07:41:25;;;;;;;;;;;;;;;25.43;33.28;100010.09;4988782;28;6788;-76
2022/09/03 07:43:52;;;;;;;;;;;;;;;25.46;33.08;100006.53;4987676;28;7059;-77
2022/09/03 07:46:24;;;;;;;;;;;;;;;25.49;33.02;100009.97;4988682;28;7121;-77
2022/09/03 07:48:51;;;;;;;;;;;;;;;25.53;32.41;100010.81;4996988;28;6832;-77
2022/09/03 07:51:19;;;;;;;;;;;;;;;25.55;32.29;100010.78;4992149;28;6804;-76
2022/09/03 07:53:47;;;;;;;;;;;;;;;25.55;32.58;100011.63;4976259;28;6856;-76
2022/09/03 07:56:14;;;;;;;;;;;;;;;25.52;32.22;100014.34;4990164;28;6935;-77
2022/09/03 07:58:41;;;;;;;;;;;;;;;25.45;32.06;100017.94;4975553;28;6981;-76
2022/09/03 08:01:13;;;;;;;;;;;;;;;25.36;32.34;100013.75;4990164;28;6995;-76
2022/09/03 08:03:45;;;;;;;;;;;;;;;25.27;32.13;100016.53;4970433;28;7301;-76
2022/09/03 08:06:11;;;;;;;;;;;;;;;25.22;32.34;100021.88;4971779;28;7080;-77
2022/09/03 08:08:39;;;;;;;;;;;;;;;25.16;32.48;100028.09;4966434;28;8105;-77
2022/09/03 08:11:13;;;;;;;;;;;;;;;25.10;32.41;100036.91;4988365;28;7013;-77
2022/09/03 08:13:42;;;;;;;;;;;;;;;25.06;32.52;100030.00;4990169;28;6776;-76
2022/09/03 08:16:13;;;;;;;;;;;;;;;25.04;32.91;100028.31;4991473;28;6800;-76
2022/09/03 08:18:39;;;;;;;;;;;;;;;25.02;33.03;100038.84;4969064;28;7027;-77
2022/09/03 08:21:15;;;;;;;;;;;;;;;25.03;33.02;100032.69;4987708;28;6926;-76
2022/09/03 08:23:44;;;;;;;;;;;;;;;25.06;33.00;100031.75;4973511;28;6960;-76
2022/09/03 08:26:10;;;;;;;;;;;;;;;25.07;32.79;100026.50;4974922;28;6983;-76
2022/09/03 08:28:37;;;;;;;;;;;;;;;25.16;33.06;100024.59;4992763;28;6788;-76
2022/09/03 08:31:18;;;;;;;;;;;;;;;25.23;32.85;100016.59;4985670;28;7162;-76
2022/09/03 08:33:52;;;;;;;;;;;;;;;25.33;33.10;100025.16;4988279;28;6808;-76
2022/09/03 08:36:28;;;;;;;;;;;;;;;25.42;33.05;100021.47;4988751;28;6796;-77
2022/09/03 08:38:56;;;;;;;;;;;;;;;25.50;33.08;100019.59;4986659;28;7241;-77
2022/09/03 08:42:07;;;;;;;;;;;;;;;25.59;32.82;100015.94;4988839;28;7221;-76
2022/09/03 08:44:55;;;;;;;;;;;;;;;25.68;32.65;100019.25;4987037;28;7213;-76
2022/09/03 08:47:25;;;;;;;;;;;;;;;25.75;32.60;100019.09;4989397;28;6803;-77
2022/09/03 08:50:10;;;;;;;;;;;;;;;25.81;32.42;100025.97;4989176;28;7248;-77
2022/09/03 08:52:49;;;;;;;;;;;;;;;25.91;32.28;100021.38;4969927;28;7288;-77
2022/09/03 08:55:35;;;;;;;;;;;;;;;26.00;32.55;100030.84;4963701;28;6930;-77
2022/09/03 08:58:09;;;;;;;;;;;;;;;26.13;32.44;100031.44;4989841;28;6812;-76
2022/09/03 09:01:02;;;;;;;;;;;;;;;26.28;32.38;100032.88;4986740;28;6890;-76
2022/09/03 09:04:05;;;;;;;;;;;;;;;26.44;32.60;100028.97;4992313;28;7187;-77
2022/09/03 09:06:55;;;;;;;;;;;;;;;26.68;32.36;100034.53;4972366;28;7305;-77
2022/09/03 09:09:47;;;;;;;;;;;;;;;26.90;32.23;100034.03;4990748;28;6804;-77
2022/09/03 09:13:29;;;;;;;;;;;;;;;27.21;32.04;100032.34;4987223;28;6955;-77
2022/09/03 09:16:29;;;;;;;;;;;;;;;27.45;31.75;100033.44;4946868;28;6820;-76
2022/09/03 09:19:41;;;;;;;;;;;;;;;27.73;31.48;100036.16;4947288;28;7232;-77
2022/09/03 09:22:16;;;;;;;;;;;;;;;28.05;31.29;100040.50;4991202;28;6981;-77
2022/09/03 09:24:47;;;;;;;;;;;;;;;28.28;31.27;100029.28;4990695;28;6808;-77
2022/09/03 09:27:18;;;;;;;;;;;;;;;28.52;31.11;100026.78;4993347;28;7202;-77
2022/09/03 09:29:50;;;;;;;;;;;;;;;28.76;31.14;100037.41;4993229;28;7031;-77
2022/09/03 09:32:19;;;;;;;;;;;;;;;29.02;30.48;100038.34;4988106;28;7263;-77
2022/09/03 09:34:45;;;;;;;;;;;;;;;29.24;30.49;100031.38;4991018;28;7396;-78
2022/09/03 09:37:16;;;;;;;;;;;;;;;29.49;30.47;100029.66;4994487;28;6850;-77
2022/09/03 09:39:57;;;;;;;;;;;;;;;29.73;30.13;100021.75;4996808;28;6869;-78
2022/09/03 09:42:24;;;;;;;;;;;;;;;29.94;29.82;100020.91;4990198;28;6851;-77
2022/09/03 09:44:50;;;;;;;;;;;;;;;30.15;29.73;100020.16;4972711;28;6796;-77
2022/09/03 09:47:38;;;;;;;;;;;;;;;30.32;28.91;100022.13;4975144;28;7041;-76
2022/09/03 09:50:20;;;;;;;;;;;;;;;30.36;28.27;100034.28;4990798;28;6804;-76
2022/09/03 09:52:46;;;;;;;;;;;;;;;30.34;27.68;100030.84;4995574;28;6811;-76
2022/09/03 09:55:19;;;;;;;;;;;;;;;30.27;28.32;100034.66;4991614;28;7122;-77
2022/09/03 09:57:45;;;;;;;;;;;;;;;30.18;27.77;100035.88;4957231;28;7015;-77
2022/09/03 10:00:15;;;;;;;;;;;;;;;30.09;28.62;100031.84;4993180;28;6804;-77
2022/09/03 10:02:53;;;;;;;;;;;;;;;30.05;28.41;100025.81;4972694;28;6994;-78
2022/09/03 10:05:26;;;;;;;;;;;;;;;30.09;29.04;100031.84;4991524;28;6996;-77
2022/09/03 10:08:06;;;;;;;;;;;;;;;30.09;28.08;100033.59;4991379;28;6808;-77
2022/09/03 10:10:42;;;;;;;;;;;;;;;29.99;28.58;100031.28;4990952;28;6867;-77
2022/09/03 10:13:23;;;;;;;;;;;;;;;29.93;28.28;100031.53;4986900;28;6803;-77
2022/09/03 10:16:01;;;;;;;;;;;;;;;29.89;28.92;100036.09;4973793;28;7323;-76
2022/09/03 10:19:12;;;;;;;;;;;;;;;29.81;29.40;100035.53;4990875;28;7347;-77
2022/09/03 10:22:09;;;;;;;;;;;;;;;29.72;29.08;100023.50;4992009;28;6815;-77
2022/09/03 10:24:57;;;;;;;;;;;;;;;29.69;29.43;100031.56;4994718;28;6800;-76
2022/09/03 10:27:22;;;;;;;;;;;;;;;29.74;29.90;100031.38;4995162;28;6812;-77
2022/09/03 10:29:49;;;;;;;;;;;;;;;29.78;29.50;100023.28;4990253;28;6784;-77
2022/09/03 10:32:35;;;;;;;;;;;;;;;29.92;29.87;100032.44;4990506;28;7214;-77
2022/09/03 10:35:22;;;;;;;;;;;;;;;30.07;29.94;100037.19;4990921;28;6823;-76
2022/09/03 10:38:06;;;;;;;;;;;;;;;30.24;29.77;100030.38;4976274;28;7121;-76
2022/09/03 10:41:01;;;;;;;;;;;;;;;30.49;29.69;100035.50;4988917;28;7044;-76
2022/09/03 10:44:02;;;;;;;;;;;;;;;30.68;29.62;100028.63;4992544;28;6868;-77
2022/09/03 10:46:56;;;;;;;;;;;;;;;30.81;29.92;100023.66;4972157;28;7279;-76
2022/09/03 10:49:56;;;;;;;;;;;;;;;30.90;29.81;100028.56;4972767;28;7145;-77
2022/09/03 10:53:04;;;;;;;;;;;;;;;30.97;29.57;100023.88;4988238;28;7015;-77
2022/09/03 10:55:54;;;;;;;;;;;;;;;30.99;28.93;100029.94;4989254;28;6800;-78
2022/09/03 10:58:47;;;;;;;;;;;;;;;31.06;29.44;100025.28;4994152;28;6884;-77
2022/09/03 11:01:40;;;;;;;;;;;;;;;31.28;29.54;100019.91;4987418;28;7314;-77
2022/09/03 11:04:28;;;;;;;;;;;;;;;31.55;29.16;100017.81;4993460;28;7227;-77
2022/09/03 11:07:04;;;;;;;;;;;;;;;31.62;28.80;100014.84;4990290;28;6977;-77
2022/09/03 11:10:07;;;;;;;;;;;;;;;31.68;29.00;100017.22;4985011;28;6796;-77
2022/09/03 11:12:46;;;;;;;;;;;;;;;31.90;28.81;100013.59;4976037;28;7038;-78
2022/09/03 11:15:27;;;;;;;;;;;;;;;32.31;28.64;100016.03;4988728;28;7876;-76
2022/09/03 11:18:19;;;;;;;;;;;;;;;32.82;28.23;100007.34;4991550;28;6884;-78
2022/09/03 11:20:49;;;;;;;;;;;;;;;33.11;28.81;100012.97;4991249;28;6807;-77
2022/09/03 11:23:18;;;;;;;;;;;;;;;33.19;27.65;100004.59;4988843;28;6800;-77
2022/09/03 11:25:52;;;;;;;;;;;;;;;33.14;27.19;100011.94;4990775;28;7188;-77
2022/09/03 11:28:41;;;;;;;;;;;;;;;33.00;27.46;100005.56;4991110;28;6808;-77
2022/09/03 11:31:24;;;;;;;;;;;;;;;32.90;27.70;100005.16;4989698;28;6812;-78
2022/09/03 11:34:14;;;;;;;;;;;;;;;33.04;27.89;100007.13;4956975;28;7398;-78
2022/09/03 11:36:41;;;;;;;;;;;;;;;33.58;27.49;99998.09;4987709;28;7008;-78
2022/09/03 11:39:38;;;;;;;;;;;;;;;34.44;26.46;99993.31;4989636;28;6788;-77
2022/09/03 11:42:20;;;;;;;;;;;;;;;35.21;25.80;99992.34;4990678;28;6974;-77
2022/09/03 11:44:50;;;;;;;;;;;;;;;35.63;25.27;99993.28;4986308;28;6796;-77
2022/09/03 11:47:24;;;;;;;;;;;;;;;35.94;25.58;99991.28;4991158;28;6788;-76
2022/09/03 11:50:02;;;;;;;;;;;;;;;36.37;25.09;99984.94;4991908;28;6800;-76
2022/09/03 11:52:31;;;;;;;;;;;;;;;37.09;24.65;99993.50;4975515;28;7885;-76
2022/09/03 11:54:57;;;;;;;;;;;;;;;37.91;23.78;99978.75;4974960;28;7275;-74
2022/09/03 11:57:32;;;;;;;;;;;;;;;38.41;23.45;99969.72;4988680;28;6792;-76
2022/09/03 12:00:20;;;;;;;;;;;;;;;38.70;22.96;99972.84;4989893;28;6788;-75
2022/09/03 12:03:01;;;;;;;;;;;;;;;39.12;22.72;99979.47;4973982;28;11275;-75
2022/09/03 12:05:52;;;;;;;;;;;;;;;39.76;21.95;99967.22;4991686;28;7188;-76
2022/09/03 12:09:03;;;;;;;;;;;;;;;40.25;21.32;99969.47;4990397;28;6808;-75
2022/09/03 12:12:01;;;;;;;;;;;;;;;40.48;20.87;99970.25;4991809;28;6804;-76
2022/09/03 12:14:57;;;;;;;;;;;;;;;40.88;20.87;99973.16;4974431;28;7100;-76
2022/09/03 12:20:41;;;;;;;;;;;;;;;42.01;19.25;99964.94;4991876;28;6784;-76
2022/09/03 12:23:24;;;;;;;;;;;;;;;42.36;19.19;99968.91;4989322;28;7196;-75
2022/09/03 12:25:52;;;;;;;;;;;;;;;42.57;18.77;99966.06;4991869;28;7124;-76
2022/09/03 12:28:23;;;;;;;;;;;;;;;42.70;18.30;99964.91;4985436;28;6796;-75
2022/09/03 12:30:52;;;;;;;;;;;;;;;42.77;18.16;99965.16;4990459;28;7175;-76
2022/09/03 12:33:20;;;;;;;;;;;;;;;42.75;17.97;99974.22;4989536;28;6792;-76
2022/09/03 12:36:00;;;;;;;;;;;;;;;42.75;18.28;99963.44;4970477;28;7423;-76
2022/09/03 12:38:31;;;;;;;;;;;;;;;42.74;17.95;99972.53;4987943;28;7109;-75
2022/09/03 12:40:57;;;;;;;;;;;;;;;42.75;18.04;99971.53;4971840;28;6880;-75
2022/09/03 12:43:28;;;;;;;;;;;;;;;42.53;17.83;99970.03;4972179;28;6819;-76
2022/09/03 12:45:54;;;;;;;;;;;;;;;42.44;17.64;99960.09;4988374;28;6807;-76
2022/09/03 12:48:21;;;;;;;;;;;;;;;42.42;17.64;99965.66;4989914;28;6949;-75
2022/09/03 12:50:59;;;;;;;;;;;;;;;42.40;17.92;99964.97;4989719;28;7159;-76
2022/09/03 12:53:30;;;;;;;;;;;;;;;42.20;17.54;99959.56;4973389;28;6804;-75
2022/09/03 12:56:00;;;;;;;;;;;;;;;41.97;17.89;99960.84;4987817;28;6792;-76
2022/09/03 12:58:43;;;;;;;;;;;;;;;41.45;17.96;99967.31;4976452;28;6796;-75
2022/09/03 13:01:30;;;;;;;;;;;;;;;40.94;18.40;99970.78;4989799;28;6868;-75
2022/09/03 13:04:08;;;;;;;;;;;;;;;40.65;18.51;99971.47;4985630;28;6796;-76
2022/09/03 13:06:55;;;;;;;;;;;;;;;40.70;18.67;99971.06;4987902;28;6955;-75
2022/09/03 13:09:28;;;;;;;;;;;;;;;40.16;19.05;99968.41;4985147;28;7064;-75
2022/09/03 13:11:57;;;;;;;;;;;;;;;39.26;19.56;99964.97;4988554;28;7216;-75
2022/09/03 13:14:26;;;;;;;;;;;;;;;38.39;20.16;99964.50;4986086;28;6804;-76
2022/09/03 13:17:58;;;;;;;;;;;;;;;37.44;21.21;99967.88;4988152;28;6865;-75
2022/09/03 13:21:06;;;;;;;;;;;;;;;36.93;21.81;99967.81;4965031;28;7015;-76
2022/09/03 13:23:58;;;;;;;;;;;;;;;36.89;21.94;99968.97;4990748;28;6816;-76
2022/09/03 13:27:04;;;;;;;;;;;;;;;37.26;21.85;99972.72;4992396;28;6824;-75
2022/09/03 13:30:19;;;;;;;;;;;;;;;37.40;21.26;99971.72;4990751;28;6808;-75
2022/09/03 13:33:19;;;;;;;;;;;;;;;36.91;22.26;99979.56;4980735;28;10997;-75
2022/09/03 13:36:25;;;;;;;;;;;;;;;36.19;22.52;99980.81;4983616;28;6812;-75
2022/09/03 13:39:35;;;;;;;;;;;;;;;35.47;22.95;99982.72;4986654;28;6803;-75
2022/09/03 13:42:35;;;;;;;;;;;;;;;34.83;23.71;99983.06;4967866;28;6879;-76
2022/09/03 13:45:30;;;;;;;;;;;;;;;34.39;24.04;99980.28;4986515;28;6792;-75